createdAt,value
2023-04-09T00:01:47.482Z,21.65
2023-04-09T00:04:15.356Z,21.13
2023-04-09T00:06:43.189Z,21.35
2023-04-09T00:09:10.963Z,22.02
2023-04-09T00:11:39.157Z,21.17
2023-04-09T00:14:07.399Z,21.67
2023-04-09T00:16:36.756Z,21.27
2023-04-09T00:19:04.656Z,21.30
2023-04-09T00:21:32.448Z,20.83
2023-04-09T00:24:00.283Z,21.00
2023-04-09T00:26:28.091Z,22.13
2023-04-09T00:28:56.159Z,20.08
2023-04-09T00:31:24.154Z,21.50
2023-04-09T00:33:53.392Z,22.00
2023-04-09T00:36:21.272Z,22.40
2023-04-09T00:38:51.885Z,21.60
2023-04-09T00:41:19.839Z,22.15
2023-04-09T00:43:47.676Z,22.42
2023-04-09T00:46:16.190Z,22.90
2023-04-09T00:48:44.257Z,22.33
2023-04-09T00:51:13.507Z,22.55
2023-04-09T00:53:41.642Z,22.25
2023-04-09T00:56:09.953Z,21.35
2023-04-09T00:58:37.755Z,22.52
2023-04-09T01:01:05.631Z,22.33
2023-04-09T01:03:33.732Z,21.88
2023-04-09T01:06:07.092Z,22.25
2023-04-09T01:08:47.050Z,22.70
2023-04-09T01:11:25.236Z,22.47
2023-04-09T01:14:02.407Z,21.60
2023-04-09T01:16:32.550Z,21.50
2023-04-09T01:19:05.437Z,21.23
2023-04-09T01:21:35.157Z,21.00
2023-04-09T01:24:18.092Z,21.00
2023-04-09T01:26:59.427Z,19.88
2023-04-09T01:29:32.924Z,20.90
2023-04-09T01:32:03.045Z,21.33
2023-04-09T01:34:32.450Z,21.08
2023-04-09T01:37:04.200Z,21.23
2023-04-09T01:39:32.365Z,20.35
2023-04-09T01:42:01.904Z,21.80
2023-04-09T01:44:31.596Z,22.33
2023-04-09T01:47:00.312Z,20.80
2023-04-09T01:49:29.460Z,20.15
2023-04-09T01:51:57.450Z,19.02
2023-04-09T01:54:25.473Z,18.30
2023-04-09T01:56:53.223Z,18.95
2023-04-09T01:59:21.077Z,18.92
2023-04-09T02:01:55.562Z,18.58
2023-04-09T02:04:27.797Z,20.25
2023-04-09T02:07:00.625Z,20.30
2023-04-09T02:09:31.801Z,20.63
2023-04-09T02:12:02.782Z,20.67
2023-04-09T02:14:34.126Z,18.83
2023-04-09T02:17:03.987Z,18.83
2023-04-09T02:19:40.498Z,18.15
2023-04-09T02:22:08.513Z,18.00
2023-04-09T02:24:36.405Z,18.15
2023-04-09T02:27:04.532Z,17.48
2023-04-09T02:29:32.370Z,17.35
2023-04-09T02:32:00.528Z,18.13
2023-04-09T02:34:29.714Z,17.60
2023-04-09T02:36:57.497Z,18.40
2023-04-09T02:39:25.295Z,17.50
2023-04-09T02:41:53.713Z,17.95
2023-04-09T02:44:21.503Z,17.80
2023-04-09T02:46:49.656Z,16.55
2023-04-09T02:49:17.498Z,16.63
2023-04-09T02:51:46.650Z,17.30
2023-04-09T02:54:14.467Z,16.73
2023-04-09T02:56:42.356Z,17.23
2023-04-09T02:59:10.110Z,16.13
2023-04-09T03:01:37.979Z,16.50
2023-04-09T03:04:05.944Z,16.55
2023-04-09T03:06:34.340Z,16.27
2023-04-09T03:09:03.446Z,16.67
2023-04-09T03:11:31.350Z,16.83
2023-04-09T03:13:59.159Z,16.88
2023-04-09T03:16:27.765Z,16.73
2023-04-09T03:18:55.736Z,16.40
2023-04-09T03:21:23.513Z,16.88
2023-04-09T03:23:51.322Z,17.30
2023-04-09T03:26:20.485Z,16.08
2023-04-09T03:28:48.238Z,16.35
2023-04-09T03:31:16.100Z,15.35
2023-04-09T03:33:43.914Z,16.52
2023-04-09T03:36:11.665Z,16.67
2023-04-09T03:38:39.427Z,16.65
2023-04-09T03:41:07.217Z,16.70
2023-04-09T03:43:36.399Z,16.88
2023-04-09T03:46:12.891Z,17.77
2023-04-09T03:48:41.209Z,17.20
2023-04-09T03:51:12.762Z,18.70
2023-04-09T03:53:40.885Z,18.27
2023-04-09T03:56:09.051Z,17.85
2023-04-09T03:58:38.660Z,18.10
2023-04-09T04:01:06.522Z,18.88
2023-04-09T04:03:34.553Z,18.77
2023-04-09T04:06:03.429Z,18.88
2023-04-09T04:08:31.233Z,19.00
2023-04-09T04:11:04.588Z,19.35
2023-04-09T04:13:32.409Z,18.43
2023-04-09T04:16:01.778Z,19.98
2023-04-09T04:18:29.739Z,20.40
2023-04-09T04:20:57.539Z,19.13
2023-04-09T04:23:25.343Z,19.07
2023-04-09T04:25:54.426Z,20.45
2023-04-09T04:28:22.192Z,18.67
2023-04-09T04:30:49.952Z,17.35
2023-04-09T04:33:19.167Z,19.27
2023-04-09T04:35:47.612Z,18.92
2023-04-09T04:38:15.586Z,19.60
2023-04-09T04:40:43.357Z,18.95
2023-04-09T04:43:11.146Z,19.43
2023-04-09T04:45:38.918Z,18.80
2023-04-09T04:48:06.793Z,20.25
2023-04-09T04:50:36.023Z,18.97
2023-04-09T04:53:03.855Z,18.77
2023-04-09T04:55:31.631Z,18.73
2023-04-09T04:57:59.401Z,19.65
2023-04-09T05:00:27.182Z,19.23
2023-04-09T05:02:55.105Z,18.63
2023-04-09T05:05:23.129Z,18.75
2023-04-09T05:07:52.390Z,19.33
2023-04-09T05:10:20.492Z,18.77
2023-04-09T05:12:48.266Z,18.58
2023-04-09T05:15:16.137Z,17.80
2023-04-09T05:17:44.195Z,18.50
2023-04-09T05:20:13.089Z,18.85
2023-04-09T05:22:40.856Z,18.75
2023-04-09T05:25:11.266Z,18.63
2023-04-09T05:27:39.059Z,18.05
2023-04-09T05:30:08.149Z,19.40
2023-04-09T05:32:36.306Z,19.48
2023-04-09T05:35:04.379Z,19.15
2023-04-09T05:37:32.294Z,19.60
2023-04-09T05:40:00.186Z,18.90
2023-04-09T05:42:29.349Z,18.58
2023-04-09T05:44:57.159Z,19.27
2023-04-09T05:47:25.036Z,20.50
2023-04-09T05:49:52.840Z,19.48
2023-04-09T05:52:21.440Z,18.77
2023-04-09T05:54:49.230Z,18.30
2023-04-09T05:57:17.397Z,19.08
2023-04-09T05:59:46.521Z,20.33
2023-04-09T06:02:14.373Z,17.60
2023-04-09T06:04:42.291Z,19.08
2023-04-09T06:07:10.641Z,19.35
2023-04-09T06:09:38.628Z,18.40
2023-04-09T06:12:06.479Z,19.80
2023-04-09T06:14:34.227Z,19.55
2023-04-09T06:17:04.010Z,18.63
2023-04-09T06:19:31.879Z,20.15
2023-04-09T06:21:59.692Z,20.25
2023-04-09T06:24:27.502Z,20.67
2023-04-09T06:26:55.313Z,21.25
2023-04-09T06:29:24.346Z,21.67
2023-04-09T06:31:52.624Z,20.88
2023-04-09T06:34:21.800Z,21.42
2023-04-09T06:36:49.636Z,20.35
2023-04-09T06:39:17.480Z,20.13
2023-04-09T06:41:46.358Z,19.63
2023-04-09T06:44:14.164Z,19.25
2023-04-09T06:46:41.981Z,17.63
2023-04-09T06:49:10.306Z,16.70
2023-04-09T06:51:39.461Z,16.65
2023-04-09T06:54:07.411Z,17.80
2023-04-09T06:56:35.871Z,16.17
2023-04-09T06:59:03.690Z,16.17
2023-04-09T07:01:31.634Z,15.35
2023-04-09T07:03:59.519Z,15.30
2023-04-09T07:06:27.371Z,14.30
2023-04-09T07:08:56.620Z,14.02
2023-04-09T07:11:24.456Z,14.15
2023-04-09T07:13:52.540Z,11.80
2023-04-09T07:16:21.009Z,11.32
2023-04-09T07:18:48.887Z,10.82
2023-04-09T07:21:16.801Z,12.32
2023-04-09T07:23:44.958Z,11.43
2023-04-09T07:26:14.059Z,10.93
2023-04-09T07:28:42.188Z,10.60
2023-04-09T07:31:10.805Z,12.30
2023-04-09T07:33:38.847Z,12.15
2023-04-09T07:36:06.962Z,14.75
2023-04-09T07:38:34.853Z,12.18
2023-04-09T07:41:02.652Z,11.57
2023-04-09T07:43:32.238Z,11.40
2023-04-09T07:46:00.379Z,10.88
2023-04-09T07:48:28.967Z,11.35
2023-04-09T07:50:56.810Z,11.32
2023-04-09T07:53:24.970Z,9.60
2023-04-09T07:55:53.000Z,10.48
2023-04-09T07:58:20.834Z,10.15
2023-04-09T08:00:50.720Z,9.53
2023-04-09T08:03:19.412Z,9.70
2023-04-09T08:05:47.484Z,10.73
2023-04-09T08:16:54.701Z,10.07
2023-04-09T08:19:22.538Z,9.98
2023-04-09T08:21:50.341Z,9.80
2023-04-09T08:24:18.325Z,10.80
2023-04-09T08:26:46.466Z,10.70
2023-04-09T08:29:15.625Z,10.43
2023-04-09T08:31:43.626Z,10.98
2023-04-09T08:34:13.009Z,10.90
2023-04-09T08:36:40.950Z,11.00
2023-04-09T08:39:08.819Z,14.25
2023-04-09T08:41:43.203Z,12.45
2023-04-09T08:44:11.378Z,12.07
2023-04-09T08:46:39.236Z,10.93
2023-04-09T08:49:09.256Z,10.95
2023-04-09T08:51:39.309Z,11.45
2023-04-09T08:54:07.877Z,11.70
2023-04-09T08:56:35.649Z,10.95
2023-04-09T08:59:03.488Z,11.27
2023-04-09T09:01:33.211Z,11.30
2023-04-09T09:04:03.981Z,10.90
2023-04-09T09:06:33.956Z,10.70
2023-04-09T09:09:05.432Z,11.60
2023-04-09T09:11:33.690Z,10.73
2023-04-09T09:14:03.526Z,10.90
2023-04-09T09:16:33.541Z,10.98
2023-04-09T09:19:01.897Z,11.75
2023-04-09T09:21:30.984Z,12.00
2023-04-09T09:32:39.012Z,13.85
2023-04-09T09:35:08.189Z,13.57
2023-04-09T09:37:36.010Z,13.63
2023-04-09T09:40:04.381Z,14.70
2023-04-09T09:42:33.661Z,15.38
2023-04-09T09:45:02.393Z,15.53
2023-04-09T09:47:31.924Z,14.70
2023-04-09T09:49:59.787Z,15.60
2023-04-09T09:52:27.887Z,14.73
2023-04-09T09:54:58.808Z,14.77
2023-04-09T09:57:28.620Z,14.98
2023-04-09T10:00:03.578Z,15.38
2023-04-09T10:02:38.318Z,16.02
2023-04-09T10:05:08.556Z,16.08
2023-04-09T10:07:37.512Z,14.40
2023-04-09T10:10:08.245Z,14.93
2023-04-09T10:12:36.425Z,16.20
2023-04-09T10:15:06.727Z,15.10
2023-04-09T10:17:34.639Z,14.85
2023-04-09T10:20:11.399Z,15.55
2023-04-09T10:22:39.768Z,15.93
2023-04-09T10:25:08.294Z,15.75
2023-04-09T10:27:37.332Z,14.68
2023-04-09T10:30:10.569Z,14.95
2023-04-09T10:32:39.443Z,14.73
2023-04-09T10:35:10.363Z,15.55
2023-04-09T10:37:38.211Z,15.50
2023-04-09T10:40:08.897Z,15.43
2023-04-09T10:42:40.612Z,15.05
2023-04-09T10:45:11.084Z,15.40
2023-04-09T10:47:40.524Z,14.18
2023-04-09T10:50:20.317Z,15.87
2023-04-09T10:52:48.515Z,14.63
2023-04-09T10:55:36.079Z,14.27
2023-04-09T10:58:05.434Z,14.35
2023-04-09T11:00:40.450Z,14.07
2023-04-09T11:03:24.723Z,14.40
2023-04-09T11:06:00.338Z,14.93
2023-04-09T11:08:31.246Z,18.58
2023-04-09T11:11:00.941Z,12.70
2023-04-09T11:13:30.401Z,12.82
2023-04-09T11:16:00.537Z,11.63
2023-04-09T11:18:29.930Z,15.00
2023-04-09T11:20:58.401Z,12.98
2023-04-09T11:23:27.145Z,12.40
2023-04-09T11:25:56.388Z,12.95
2023-04-09T11:28:25.658Z,13.32
2023-04-09T11:30:55.713Z,13.73
2023-04-09T11:33:36.476Z,13.95
2023-04-09T11:36:11.874Z,14.15
2023-04-09T11:38:45.261Z,13.52
2023-04-09T11:41:21.335Z,13.55
2023-04-09T11:43:53.056Z,12.85
2023-04-09T11:46:25.990Z,13.57
2023-04-09T11:48:56.328Z,13.77
2023-04-09T11:51:24.921Z,13.75
2023-04-09T11:53:52.844Z,12.02
2023-04-09T11:56:20.817Z,12.95
2023-04-09T11:58:49.672Z,15.10
2023-04-09T12:01:17.540Z,15.13
2023-04-09T12:03:45.453Z,13.93
2023-04-09T12:06:14.689Z,14.95
2023-04-09T12:08:42.831Z,14.93
2023-04-09T12:11:11.666Z,15.80
2023-04-09T12:13:42.918Z,15.77
2023-04-09T12:16:10.875Z,15.75
2023-04-09T12:18:39.104Z,17.13
2023-04-09T12:21:07.111Z,15.60
2023-04-09T12:23:36.273Z,16.13
2023-04-09T12:26:04.229Z,15.57
2023-04-09T12:28:32.290Z,15.15
2023-04-09T12:31:00.363Z,16.05
2023-04-09T12:33:28.263Z,16.65
2023-04-09T12:35:58.238Z,16.52
2023-04-09T12:38:26.650Z,16.15
2023-04-09T12:40:55.807Z,15.85
2023-04-09T12:43:23.770Z,16.50
2023-04-09T12:45:52.810Z,16.30
2023-04-09T12:48:20.672Z,17.17
2023-04-09T12:50:48.503Z,16.52
2023-04-09T12:53:16.528Z,15.98
2023-04-09T12:55:44.331Z,15.00
2023-04-09T12:58:13.544Z,13.27
2023-04-09T13:00:41.698Z,13.13
2023-04-09T13:03:09.658Z,13.35
2023-04-09T13:05:37.739Z,13.77
2023-04-09T13:08:05.697Z,13.13
2023-04-09T13:10:33.939Z,13.40
2023-04-09T13:13:01.778Z,14.73
2023-04-09T13:15:31.464Z,15.73
2023-04-09T13:17:59.301Z,16.07
2023-04-09T13:20:27.323Z,16.05
2023-04-09T13:22:55.237Z,15.98
2023-04-09T13:25:23.328Z,15.88
2023-04-09T13:27:51.159Z,16.40
2023-04-09T13:30:19.113Z,15.98
2023-04-09T13:32:48.268Z,16.30
2023-04-09T13:35:16.160Z,16.10
2023-04-09T13:37:43.917Z,16.42
2023-04-09T13:40:12.446Z,15.93
2023-04-09T13:42:40.294Z,15.57
2023-04-09T13:45:08.688Z,17.33
2023-04-09T13:47:36.567Z,15.32
2023-04-09T13:50:07.526Z,16.20
2023-04-09T13:52:35.322Z,17.17
2023-04-09T13:55:03.858Z,15.18
2023-04-09T13:57:31.662Z,14.05
2023-04-09T14:00:01.776Z,13.25
2023-04-09T14:02:29.753Z,13.93
2023-04-09T14:04:58.186Z,14.13
2023-04-09T14:07:27.332Z,14.50
2023-04-09T14:09:55.315Z,13.48
2023-04-09T14:12:23.134Z,15.95
2023-04-09T14:14:51.554Z,15.25
2023-04-09T14:17:19.388Z,15.00
2023-04-09T14:19:47.208Z,14.48
2023-04-09T14:22:15.319Z,14.15
2023-04-09T14:24:44.462Z,13.40
2023-04-09T14:27:12.287Z,13.68
2023-04-09T14:29:40.113Z,11.98
2023-04-09T14:32:07.917Z,12.32
2023-04-09T14:34:35.752Z,11.55
2023-04-09T14:37:03.783Z,11.35
2023-04-09T14:39:31.662Z,11.40
2023-04-09T14:42:01.572Z,11.57
2023-04-09T14:44:29.370Z,11.60
2023-04-09T14:46:57.625Z,12.10
2023-04-09T14:49:25.900Z,12.65
2023-04-09T14:51:54.451Z,11.27
2023-04-09T14:54:22.212Z,10.02
2023-04-09T14:56:50.037Z,10.25
2023-04-09T14:59:19.180Z,10.07
2023-04-09T15:01:47.011Z,11.82
2023-04-09T15:04:15.030Z,11.02
2023-04-09T15:06:42.888Z,13.05
2023-04-09T15:09:10.651Z,11.50
2023-04-09T15:11:38.493Z,12.38
2023-04-09T15:14:06.227Z,11.98
2023-04-09T15:16:37.422Z,12.25
2023-04-09T15:19:05.454Z,12.35
2023-04-09T15:21:33.249Z,12.93
2023-04-09T15:24:01.057Z,12.60
2023-04-09T15:26:28.920Z,12.55
2023-04-09T15:29:03.445Z,12.15
2023-04-09T15:31:31.422Z,11.68
2023-04-09T15:34:00.842Z,10.90
2023-04-09T15:36:29.930Z,10.13
2023-04-09T15:38:57.830Z,9.10
2023-04-09T15:41:26.772Z,10.00
2023-04-09T15:43:54.559Z,11.02
2023-04-09T15:46:22.427Z,10.60
2023-04-09T15:48:50.279Z,11.15
2023-04-09T15:51:19.391Z,10.95
2023-04-09T15:53:47.303Z,10.80
2023-04-09T15:56:15.286Z,10.43
2023-04-09T15:58:43.898Z,9.73
2023-04-09T16:01:12.473Z,9.93
2023-04-09T16:03:41.150Z,11.85
2023-04-09T16:06:12.963Z,10.10
2023-04-09T16:08:42.159Z,9.63
2023-04-09T16:11:10.811Z,10.02
2023-04-09T16:13:38.654Z,9.38
2023-04-09T16:16:07.722Z,10.07
2023-04-09T16:18:35.779Z,10.15
2023-04-09T16:21:04.205Z,9.82
2023-04-09T16:23:32.871Z,12.13
2023-04-09T16:26:02.009Z,10.60
2023-04-09T16:28:29.783Z,10.30
2023-04-09T16:30:57.584Z,10.30
2023-04-09T16:33:25.586Z,9.27
2023-04-09T16:35:53.406Z,9.40
2023-04-09T16:38:21.235Z,9.30
2023-04-09T16:40:49.043Z,9.20
2023-04-09T16:43:18.590Z,9.18
2023-04-09T16:45:46.525Z,9.13
2023-04-09T16:48:14.444Z,9.25
2023-04-09T16:50:42.807Z,9.27
2023-04-09T16:53:10.730Z,8.82
2023-04-09T16:55:38.669Z,9.20
2023-04-09T16:58:06.602Z,9.43
2023-04-09T17:00:36.239Z,8.98
2023-04-09T17:03:04.618Z,9.00
2023-04-09T17:05:32.684Z,9.67
2023-04-09T17:08:00.582Z,8.98
2023-04-09T17:10:28.534Z,9.55
2023-04-09T17:12:56.387Z,9.90
2023-04-09T17:15:25.146Z,9.63
2023-04-09T17:17:54.359Z,9.90
2023-04-09T17:20:24.204Z,9.27
2023-04-09T17:22:52.005Z,9.23
2023-04-09T17:25:20.502Z,9.95
2023-04-09T17:27:48.366Z,9.73
2023-04-09T17:30:16.314Z,9.82
2023-04-09T17:32:44.279Z,9.77
2023-04-09T17:35:13.562Z,9.88
2023-04-09T17:37:41.364Z,10.00
2023-04-09T17:40:10.616Z,10.30
2023-04-09T17:42:38.421Z,10.43
2023-04-09T17:45:07.321Z,10.17
2023-04-09T17:47:35.161Z,10.30
2023-04-09T17:50:03.431Z,10.10
2023-04-09T17:55:05.512Z,10.07
2023-04-09T17:57:33.324Z,9.82
2023-04-09T18:00:01.455Z,9.40
2023-04-09T18:02:29.416Z,9.32
2023-04-09T18:04:58.565Z,9.40
2023-04-09T18:07:30.214Z,8.90
2023-04-09T18:09:58.036Z,8.77
2023-04-09T18:12:27.291Z,9.40
2023-04-09T18:14:55.126Z,8.90
2023-04-09T18:17:23.245Z,9.13
2023-04-09T18:19:51.184Z,8.65
2023-04-09T18:22:18.961Z,8.55
2023-04-09T18:24:46.969Z,8.90
2023-04-09T18:27:14.727Z,8.75
2023-04-09T18:29:44.025Z,9.38
2023-04-09T18:32:12.421Z,9.05
2023-04-09T18:34:40.827Z,8.77
2023-04-09T18:37:08.676Z,8.70
2023-04-09T18:39:37.469Z,9.32
2023-04-09T18:42:05.384Z,9.30
2023-04-09T18:44:36.014Z,9.60
2023-04-09T18:47:05.742Z,9.50
2023-04-09T18:49:34.377Z,9.63
2023-04-09T18:52:03.015Z,9.55
2023-04-09T18:54:30.780Z,11.23
2023-04-09T18:56:58.732Z,11.77
2023-04-09T18:59:26.791Z,13.95
2023-04-09T19:01:55.294Z,12.15
2023-04-09T19:04:27.854Z,12.23
2023-04-09T19:06:56.091Z,12.30
2023-04-09T19:09:23.867Z,11.77
2023-04-09T19:11:51.965Z,11.20
2023-04-09T19:14:19.773Z,11.18
2023-04-09T19:16:47.533Z,11.40
2023-04-09T19:19:15.313Z,11.13
2023-04-09T19:21:44.602Z,11.15
2023-04-09T19:24:12.515Z,10.97
2023-04-09T19:26:40.335Z,10.85
2023-04-09T19:29:08.104Z,11.57
2023-04-09T19:31:35.956Z,10.38
2023-04-09T19:34:03.769Z,10.77
2023-04-09T19:36:32.223Z,11.25
2023-04-09T19:39:01.323Z,11.07
2023-04-09T19:41:29.175Z,10.75
2023-04-09T19:43:56.987Z,11.18
2023-04-09T19:46:24.842Z,11.05
2023-04-09T19:48:52.828Z,11.32
2023-04-09T19:51:21.898Z,11.13
2023-04-09T19:53:49.668Z,10.82
2023-04-09T19:56:19.543Z,11.00
2023-04-09T19:58:47.982Z,11.02
2023-04-09T20:01:16.848Z,11.77
2023-04-09T20:03:44.928Z,10.57
2023-04-09T20:06:12.779Z,10.65
2023-04-09T20:08:40.803Z,10.57
2023-04-09T20:11:08.698Z,11.40
2023-04-09T20:13:38.017Z,11.25
2023-04-09T20:16:06.577Z,11.80
2023-04-09T20:18:34.396Z,11.48
2023-04-09T20:21:02.160Z,11.98
2023-04-09T20:23:30.154Z,11.15
2023-04-09T20:25:58.305Z,11.52
2023-04-09T20:28:26.161Z,11.18
2023-04-09T20:30:55.295Z,11.83
2023-04-09T20:33:23.099Z,11.55
2023-04-09T20:35:52.199Z,11.40
2023-04-09T20:38:21.463Z,10.25
2023-04-09T20:40:49.240Z,11.40
2023-04-09T20:43:17.000Z,11.10
2023-04-09T20:45:45.006Z,11.48
2023-04-09T20:48:14.766Z,13.07
2023-04-09T20:50:42.609Z,12.50
2023-04-09T20:53:10.450Z,13.07
2023-04-09T20:55:38.689Z,13.10
2023-04-09T20:58:07.547Z,14.07
2023-04-09T21:00:35.296Z,13.57
2023-04-09T21:03:03.683Z,13.65
2023-04-09T21:05:33.753Z,14.50
2023-04-09T21:08:01.641Z,14.45
2023-04-09T21:10:29.449Z,14.43
2023-04-09T21:12:57.525Z,15.98
2023-04-09T21:15:25.508Z,14.80
2023-04-09T21:17:53.361Z,15.13
2023-04-09T21:20:26.312Z,14.70
2023-04-09T21:22:56.593Z,16.20
2023-04-09T21:25:28.159Z,15.63
2023-04-09T21:27:56.121Z,16.08
2023-04-09T21:30:23.867Z,15.85
2023-04-09T21:32:53.651Z,16.50
2023-04-09T21:35:21.744Z,16.58
2023-04-09T21:37:49.767Z,16.10
2023-04-09T21:40:18.882Z,15.80
2023-04-09T21:42:47.118Z,16.85
2023-04-09T21:45:15.249Z,16.27
2023-04-09T21:47:43.294Z,16.33
2023-04-09T21:50:12.169Z,15.75
2023-04-09T21:52:39.964Z,15.45
2023-04-09T21:55:09.610Z,15.65
2023-04-09T21:57:38.714Z,15.13
2023-04-09T22:00:09.266Z,15.23
2023-04-09T22:02:38.381Z,15.35
2023-04-09T22:05:06.912Z,14.80
2023-04-09T22:07:37.079Z,14.20
2023-04-09T22:10:05.357Z,14.63
2023-04-09T22:12:36.031Z,14.90
2023-04-09T22:15:06.330Z,14.95
2023-04-09T22:17:34.208Z,16.13
2023-04-09T22:20:02.565Z,14.90
2023-04-09T22:22:30.412Z,15.05
2023-04-09T22:24:58.168Z,14.65
2023-04-09T22:27:26.027Z,15.18
2023-04-09T22:29:53.864Z,14.55
2023-04-09T22:32:22.991Z,14.37
2023-04-09T22:34:50.737Z,14.32
2023-04-09T22:37:18.948Z,14.07
2023-04-09T22:39:46.722Z,14.68
2023-04-09T22:42:14.509Z,15.23
2023-04-09T22:44:42.493Z,16.27
2023-04-09T22:47:10.290Z,14.95
2023-04-09T22:49:39.543Z,16.13
2023-04-09T22:52:08.074Z,15.35
2023-04-09T22:54:37.830Z,15.70
2023-04-09T22:57:05.607Z,16.43
2023-04-09T22:59:40.447Z,15.30
2023-04-09T23:02:08.910Z,16.02
2023-04-09T23:04:36.864Z,15.65
2023-04-09T23:07:06.317Z,14.70
2023-04-09T23:09:34.287Z,15.43
2023-04-09T23:12:03.264Z,15.93
2023-04-09T23:14:31.085Z,15.40
2023-04-09T23:16:58.987Z,16.25
2023-04-09T23:19:27.163Z,16.00
2023-04-09T23:21:54.931Z,16.13
2023-04-09T23:24:24.104Z,15.48
2023-04-09T23:26:52.051Z,15.38
2023-04-09T23:29:19.911Z,15.18
2023-04-09T23:31:47.799Z,16.83
2023-04-09T23:34:16.122Z,16.83
2023-04-09T23:36:43.972Z,16.60
2023-04-09T23:39:11.895Z,17.38
2023-04-09T23:41:41.481Z,16.30
2023-04-09T23:44:09.278Z,16.75
2023-04-09T23:46:37.159Z,16.65
2023-04-09T23:49:05.010Z,16.42
2023-04-09T23:51:32.924Z,17.13
2023-04-09T23:54:01.355Z,16.02
2023-04-09T23:56:29.892Z,16.77
2023-04-09T23:58:59.124Z,15.18
